Time;durP1;ratioP1;P1;durP2;ratioP2;P2;SDS_P1;SDS_P2;PMS_P1;PMS_P2;Temp;Humidity;BMP_temperature;BMP_pressure;BME280_temperature;BME280_humidity;BME280_pressure;Samples;Min_cycle;Max_cycle;Signal;HPM_P1;HPM_P2
2023/04/01 00:01:00;;;;;;;8.15;4.35;;;9.70;99.90;;;;;;5088403;28;20070;-58
2023/04/01 00:03:29;;;;;;;5.75;4.10;;;9.70;99.90;;;;;;5081849;28;20043;-57
2023/04/01 00:05:58;;;;;;;6.70;4.33;;;9.70;99.90;;;;;;5099634;28;20067;-57
2023/04/01 00:08:26;;;;;;;5.80;4.45;;;9.70;99.90;;;;;;5077562;28;20622;-59
2023/04/01 00:10:57;;;;;;;8.20;3.85;;;9.70;99.90;;;;;;5085271;28;20063;-58
2023/04/01 00:13:26;;;;;;;11.15;4.57;;;9.70;99.90;;;;;;5085915;28;20036;-58
2023/04/01 00:15:55;;;;;;;11.65;4.90;;;9.60;99.90;;;;;;5084779;28;20074;-59
2023/04/01 00:18:27;;;;;;;8.95;5.15;;;9.60;99.90;;;;;;5087236;28;20040;-59
2023/04/01 00:20:55;;;;;;;16.25;5.30;;;9.60;99.90;;;;;;5087000;28;20043;-59
2023/04/01 00:23:22;;;;;;;9.40;4.63;;;9.60;99.90;;;;;;5087883;28;20044;-59
2023/04/01 00:25:50;;;;;;;9.70;4.05;;;9.60;99.90;;;;;;5081563;28;20055;-58
2023/04/01 00:28:19;;;;;;;7.68;4.65;;;9.50;99.90;;;;;;5088407;28;20051;-59
2023/04/01 00:30:47;;;;;;;9.68;4.70;;;9.50;99.90;;;;;;5089214;28;20051;-58
2023/04/01 00:33:16;;;;;;;8.43;4.50;;;9.50;99.90;;;;;;5088237;28;20052;-59
2023/04/01 00:35:44;;;;;;;8.15;4.30;;;9.50;99.90;;;;;;5092253;28;20066;-59
2023/04/01 00:38:12;;;;;;;9.02;4.38;;;9.50;99.90;;;;;;5108165;28;20031;-57
2023/04/01 00:40:42;;;;;;;7.93;4.45;;;9.50;99.90;;;;;;5088919;28;20047;-59
2023/04/01 00:43:18;;;;;;;6.57;4.00;;;9.50;99.90;;;;;;5104866;28;20040;-57
2023/04/01 00:45:48;;;;;;;7.68;4.07;;;9.40;99.90;;;;;;5102316;28;20495;-59
2023/04/01 00:48:20;;;;;;;6.70;4.43;;;9.40;99.90;;;;;;5105729;28;20054;-59
2023/04/01 00:50:53;;;;;;;7.05;3.22;;;9.40;99.90;;;;;;5095735;28;20055;-59
2023/04/01 00:53:22;;;;;;;5.38;3.00;;;9.40;99.90;;;;;;5096319;28;20054;-58
2023/04/01 00:55:58;;;;;;;7.70;3.28;;;9.40;99.90;;;;;;5083754;28;20048;-57
2023/04/01 00:58:32;;;;;;;9.45;3.97;;;9.40;99.90;;;;;;5089521;28;20060;-58
2023/04/01 01:01:01;;;;;;;5.88;3.15;;;9.30;99.90;;;;;;5085198;28;20586;-59
2023/04/01 01:03:29;;;;;;;10.43;3.50;;;9.30;99.90;;;;;;5099131;28;20039;-58
2023/04/01 01:06:21;;;;;;;7.35;3.25;;;9.30;99.90;;;;;;5101945;28;20048;-58
2023/04/01 01:09:34;;;;;;;6.30;3.53;;;9.30;99.90;;;;;;5087289;28;20117;-57
2023/04/01 01:12:18;;;;;;;4.55;3.20;;;9.30;99.90;;;;;;4987646;28;20042;-59
2023/04/01 01:14:59;;;;;;;9.70;3.40;;;9.30;99.90;;;;;;4998208;28;20054;-59
2023/04/01 01:17:55;;;;;;;5.38;3.53;;;9.30;99.90;;;;;;5059223;28;20509;-59
2023/04/01 01:20:29;;;;;;;4.32;3.08;;;9.30;99.90;;;;;;5100937;28;20043;-58
2023/04/01 01:23:05;;;;;;;5.18;2.88;;;9.20;99.90;;;;;;5074200;28;20051;-58
2023/04/01 01:26:04;;;;;;;4.90;3.05;;;9.30;99.90;;;;;;5095556;28;20048;-60
2023/04/01 01:28:44;;;;;;;5.10;3.17;;;9.20;99.90;;;;;;5102988;28;20038;-58
2023/04/01 01:31:42;;;;;;;3.30;2.40;;;9.20;99.90;;;;;;5083136;28;20055;-59
2023/04/01 01:34:19;;;;;;;6.07;2.60;;;9.20;99.90;;;;;;5100067;28;20052;-58
2023/04/01 01:36:52;;;;;;;4.53;2.47;;;9.20;99.90;;;;;;5087622;28;20471;-58
2023/04/01 01:39:27;;;;;;;4.13;2.03;;;9.20;99.90;;;;;;5101351;28;20039;-58
2023/04/01 01:42:02;;;;;;;3.70;2.30;;;9.10;99.90;;;;;;5104666;28;20407;-60
2023/04/01 01:44:32;;;;;;;2.72;1.90;;;9.10;99.90;;;;;;5072426;28;20051;-60
2023/04/01 01:47:00;;;;;;;3.42;1.77;;;9.10;99.90;;;;;;5084631;28;20048;-58
2023/04/01 01:49:31;;;;;;;3.72;1.75;;;9.00;99.90;;;;;;5099346;28;20039;-58
2023/04/01 01:51:59;;;;;;;2.38;1.58;;;9.10;99.90;;;;;;5103310;28;20058;-57
2023/04/01 01:54:27;;;;;;;3.13;1.88;;;9.00;99.90;;;;;;5084465;28;20036;-59
2023/04/01 01:57:09;;;;;;;3.78;2.05;;;9.00;99.90;;;;;;5087521;28;20055;-59
2023/04/01 01:59:43;;;;;;;5.40;2.85;;;9.00;99.90;;;;;;5089403;28;20036;-59
2023/04/01 02:02:18;;;;;;;5.82;2.38;;;9.00;99.90;;;;;;5088143;28;20051;-59
2023/04/01 02:04:46;;;;;;;3.25;1.77;;;9.00;99.90;;;;;;5101446;28;20036;-58
2023/04/01 02:07:27;;;;;;;6.03;1.90;;;8.90;99.90;;;;;;5101763;28;20048;-59
2023/04/01 02:09:57;;;;;;;3.17;1.95;;;8.90;99.90;;;;;;5107673;28;20048;-58
2023/04/01 02:12:27;;;;;;;3.75;1.80;;;8.90;99.90;;;;;;5087419;28;20125;-58
2023/04/01 02:15:05;;;;;;;4.47;1.55;;;8.90;99.90;;;;;;5102247;28;20047;-58
2023/04/01 02:17:35;;;;;;;4.80;1.67;;;8.90;99.90;;;;;;5083910;28;20048;-58
2023/04/01 02:20:13;;;;;;;1.85;1.35;;;8.90;99.90;;;;;;5087890;28;20039;-58
2023/04/01 02:22:53;;;;;;;3.28;2.28;;;8.90;99.90;;;;;;5088901;28;20051;-58
2023/04/01 02:25:27;;;;;;;1.95;0.93;;;8.90;99.90;;;;;;5085383;28;20044;-58
2023/04/01 02:27:57;;;;;;;3.75;1.40;;;8.80;99.90;;;;;;5107058;28;20387;-59
2023/04/01 02:30:27;;;;;;;1.60;1.13;;;8.80;99.90;;;;;;5106951;28;20039;-58
2023/04/01 02:32:57;;;;;;;2.15;1.00;;;8.80;99.90;;;;;;5106493;28;20062;-58
2023/04/01 02:35:26;;;;;;;2.42;1.25;;;8.70;99.90;;;;;;5087860;28;20039;-59
2023/04/01 02:37:55;;;;;;;1.80;1.10;;;8.80;99.90;;;;;;5102912;28;20708;-58
2023/04/01 02:40:23;;;;;;;3.50;1.10;;;8.70;99.90;;;;;;5106845;28;20036;-59
2023/04/01 02:42:52;;;;;;;1.75;0.98;;;8.70;99.90;;;;;;5104076;28;20050;-58
2023/04/01 02:45:19;;;;;;;2.25;0.80;;;8.70;99.90;;;;;;5080977;28;20040;-58
2023/04/01 02:47:47;;;;;;;3.30;1.13;;;8.70;99.90;;;;;;5107112;28;20048;-58
2023/04/01 02:50:15;;;;;;;3.40;1.02;;;8.60;99.90;;;;;;5109014;28;20047;-58
2023/04/01 02:52:43;;;;;;;3.60;1.35;;;8.70;99.90;;;;;;5108392;28;20376;-58
2023/04/01 02:55:10;;;;;;;2.35;1.00;;;8.60;99.90;;;;;;5077807;28;20398;-58
2023/04/01 02:57:38;;;;;;;1.00;0.75;;;8.60;99.90;;;;;;5090448;28;20044;-59
2023/04/01 03:00:10;;;;;;;1.25;0.90;;;8.60;99.90;;;;;;5090443;28;20039;-59
2023/04/01 03:02:39;;;;;;;0.85;0.60;;;8.60;99.90;;;;;;5096581;28;20047;-59
2023/04/01 03:05:07;;;;;;;5.03;1.10;;;8.60;99.90;;;;;;5092889;28;20484;-58
2023/04/01 03:07:34;;;;;;;1.20;0.80;;;8.50;99.90;;;;;;5103497;28;20047;-58
2023/04/01 03:10:02;;;;;;;1.95;1.23;;;8.50;99.90;;;;;;5096456;28;20047;-58
2023/04/01 03:12:30;;;;;;;3.83;0.90;;;;;;;;;;5095336;28;20047;-58
2023/04/01 03:14:58;;;;;;;1.95;0.65;;;8.50;99.90;;;;;;5103850;28;20053;-59
2023/04/01 03:17:39;;;;;;;2.33;0.93;;;8.50;99.90;;;;;;5109040;28;20036;-58
2023/04/01 03:20:10;;;;;;;1.58;1.20;;;8.50;99.90;;;;;;5113182;28;20043;-58
2023/04/01 03:22:39;;;;;;;2.08;0.93;;;8.40;99.90;;;;;;5095538;28;20043;-58
2023/04/01 03:25:10;;;;;;;1.48;1.00;;;8.40;99.90;;;;;;5114271;28;20040;-59
2023/04/01 03:27:38;;;;;;;2.80;0.80;;;8.40;99.90;;;;;;5094405;28;20055;-58
2023/04/01 03:30:09;;;;;;;2.38;1.00;;;8.30;99.90;;;;;;5095391;28;20388;-58
2023/04/01 03:32:45;;;;;;;3.83;1.20;;;8.20;99.90;;;;;;5095121;28;20055;-59
2023/04/01 03:35:13;;;;;;;4.95;1.40;;;8.20;99.90;;;;;;5095595;28;20056;-59
2023/04/01 03:37:42;;;;;;;3.92;1.30;;;8.10;99.90;;;;;;5082158;28;20056;-57
2023/04/01 03:40:10;;;;;;;2.20;1.05;;;8.00;99.90;;;;;;5093991;28;20027;-58
2023/04/01 03:42:38;;;;;;;2.15;1.25;;;8.00;99.90;;;;;;5107889;28;20735;-57
2023/04/01 03:45:06;;;;;;;5.68;1.45;;;7.90;99.90;;;;;;5082616;28;20052;-58
2023/04/01 03:47:34;;;;;;;1.52;1.35;;;7.90;99.90;;;;;;5094292;28;20044;-59
2023/04/01 03:50:02;;;;;;;3.20;1.10;;;7.80;99.90;;;;;;5093339;28;20051;-59
2023/04/01 03:52:30;;;;;;;3.90;1.50;;;7.70;99.90;;;;;;5075028;28;20044;-58
2023/04/01 03:54:57;;;;;;;2.40;1.30;;;7.50;99.90;;;;;;5094037;28;20032;-57
2023/04/01 03:57:26;;;;;;;2.67;1.67;;;7.50;99.90;;;;;;5094441;28;20043;-58
2023/04/01 03:59:57;;;;;;;2.67;1.20;;;7.30;99.90;;;;;;5094853;28;20039;-59
2023/04/01 04:02:24;;;;;;;1.40;1.00;;;7.40;99.90;;;;;;5110724;28;20058;-58
2023/04/01 04:04:52;;;;;;;3.97;1.13;;;7.40;99.90;;;;;;5094227;28;20056;-58
2023/04/01 04:07:20;;;;;;;2.33;1.30;;;7.40;99.90;;;;;;5092168;28;20632;-59
2023/04/01 04:10:05;;;;;;;2.75;1.30;;;7.30;99.90;;;;;;5092090;28;20040;-58
2023/04/01 04:12:32;;;;;;;2.90;1.00;;;7.30;99.90;;;;;;5109200;28;20051;-58
2023/04/01 04:15:00;;;;;;;4.97;1.27;;;7.30;99.90;;;;;;5107270;28;20050;-58
2023/04/01 04:17:28;;;;;;;2.47;1.33;;;7.30;99.90;;;;;;5090276;28;20059;-58
2023/04/01 04:19:56;;;;;;;2.40;1.33;;;;;;;;;;5092482;28;20035;-59
2023/04/01 04:22:24;;;;;;;4.57;1.52;;;7.30;99.90;;;;;;5108693;28;20330;-59
2023/04/01 04:24:52;;;;;;;2.72;1.13;;;7.30;99.90;;;;;;5086680;28;20059;-59
2023/04/01 04:27:22;;;;;;;;;;;7.40;99.90;;;;;;5083243;28;20051;-58
2023/04/01 04:30:03;;;;;;;1.85;1.15;;;7.40;99.90;;;;;;5096757;28;19919;-59
2023/04/01 04:32:32;;;;;;;3.67;1.35;;;7.40;99.90;;;;;;5073828;28;20044;-58
2023/04/01 04:34:59;;;;;;;2.00;1.15;;;7.40;99.90;;;;;;5087304;28;20495;-59
2023/04/01 04:37:27;;;;;;;1.83;1.50;;;7.50;99.90;;;;;;5070865;28;20364;-59
2023/04/01 04:39:55;;;;;;;2.53;1.45;;;7.50;99.90;;;;;;5106452;28;20039;-59
2023/04/01 04:42:23;;;;;;;4.53;1.52;;;7.50;99.90;;;;;;5091020;28;20043;-59
2023/04/01 04:44:58;;;;;;;2.20;1.30;;;7.50;99.90;;;;;;5086316;28;20044;-58
2023/04/01 04:47:26;;;;;;;3.63;1.33;;;10.10;99.90;;;;;;5086750;28;20063;-59
2023/04/01 04:49:53;;;;;;;7.07;1.45;;;7.60;99.90;;;;;;5092007;28;20050;-58
2023/04/01 04:52:21;;;;;;;2.17;1.45;;;7.60;99.90;;;;;;5073801;28;20051;-59
2023/04/01 04:54:49;;;;;;;7.68;2.42;;;7.60;99.90;;;;;;5085342;28;20475;-57
2023/04/01 04:57:16;;;;;;;3.70;1.95;;;7.60;99.90;;;;;;5090622;28;20048;-58
2023/04/01 04:59:51;;;;;;;2.42;1.75;;;7.60;99.90;;;;;;5090785;28;20052;-59
2023/04/01 05:02:30;;;;;;;5.23;1.93;;;7.70;99.90;;;;;;5083135;28;20044;-58
2023/04/01 05:04:58;;;;;;;3.78;2.10;;;7.70;99.90;;;;;;5098009;28;20511;-58
2023/04/01 05:07:28;;;;;;;3.65;1.92;;;7.70;99.90;;;;;;5084535;28;20503;-59
2023/04/01 05:09:56;;;;;;;2.33;1.73;;;7.70;99.90;;;;;;5103860;28;20058;-58
2023/04/01 05:12:24;;;;;;;5.57;2.30;;;7.70;99.90;;;;;;5069685;28;20048;-58
2023/04/01 05:15:05;;;;;;;2.85;2.08;;;7.80;99.90;;;;;;5084071;28;20513;-58
2023/04/01 05:17:34;;;;;;;4.25;2.13;;;;;;;;;;5105440;28;20044;-58
2023/04/01 05:20:03;;;;;;;7.60;2.28;;;7.80;99.90;;;;;;5086926;28;20394;-58
2023/04/01 05:22:31;;;;;;;5.05;2.42;;;7.80;99.90;;;;;;5084923;28;20071;-58
2023/04/01 05:24:59;;;;;;;3.88;2.42;;;7.80;99.90;;;;;;5103799;28;20052;-58
2023/04/01 05:27:28;;;;;;;2.90;2.10;;;7.80;99.90;;;;;;5105012;28;20520;-59
2023/04/01 05:29:56;;;;;;;5.10;2.28;;;7.80;99.90;;;;;;5082785;28;20051;-59
2023/04/01 05:32:59;;;;;;;3.83;2.53;;;7.80;99.90;;;;;;5030805;28;20070;-58
2023/04/01 05:35:28;;;;;;;5.93;2.25;;;7.80;99.90;;;;;;5085746;28;20055;-58
2023/04/01 05:37:56;;;;;;;4.88;2.10;;;7.90;99.90;;;;;;5085865;28;20525;-59
2023/04/01 05:40:23;;;;;;;5.38;2.50;;;7.80;99.90;;;;;;5105311;28;20899;-59
2023/04/01 05:42:54;;;;;;;3.95;1.70;;;7.90;99.90;;;;;;5102845;28;20054;-58
2023/04/01 05:45:24;;;;;;;3.72;2.05;;;7.80;99.90;;;;;;5083098;28;20538;-58
2023/04/01 05:48:10;;;;;;;5.57;2.30;;;7.90;99.90;;;;;;5086228;28;20491;-59
2023/04/01 05:50:41;;;;;;;4.63;2.22;;;7.90;99.90;;;;;;5100673;28;20054;-59
2023/04/01 05:53:10;;;;;;;5.15;2.53;;;7.90;99.90;;;;;;5076645;28;20039;-59
2023/04/01 05:55:41;;;;;;;6.88;2.30;;;7.90;99.90;;;;;;5078752;28;20490;-58
2023/04/01 05:58:09;;;;;;;3.85;1.80;;;7.90;99.90;;;;;;5066644;28;20134;-59
2023/04/01 06:00:39;;;;;;;5.78;2.58;;;8.00;99.90;;;;;;5066969;28;20037;-59
2023/04/01 06:03:08;;;;;;;3.85;2.15;;;8.00;99.90;;;;;;5080374;28;20256;-59
2023/04/01 06:05:40;;;;;;;6.40;2.65;;;8.00;99.90;;;;;;5104506;28;20043;-59
2023/04/01 06:08:15;;;;;;;3.80;2.20;;;8.00;99.90;;;;;;5098323;28;20043;-58
2023/04/01 06:11:15;;;;;;;3.60;2.08;;;8.00;99.90;;;;;;5103221;28;20039;-59
2023/04/01 06:14:05;;;;;;;4.55;2.35;;;8.00;99.90;;;;;;5081871;28;20048;-59
2023/04/01 06:17:26;;;;;;;6.40;2.30;;;8.00;99.90;;;;;;5078346;28;20207;-58
2023/04/01 06:20:29;;;;;;;3.33;1.67;;;8.00;99.90;;;;;;5023774;28;20501;-58
2023/04/01 06:23:24;;;;;;;4.82;2.50;;;8.10;99.90;;;;;;4990967;28;20054;-58
2023/04/01 06:26:07;;;;;;;5.97;2.25;;;8.00;99.90;;;;;;5080861;28;20039;-58
2023/04/01 06:28:56;;;;;;;6.60;2.85;;;8.00;99.90;;;;;;5088453;28;20052;-57
2023/04/01 06:32:01;;;;;;;5.70;2.55;;;8.00;99.90;;;;;;5070303;28;20044;-58
2023/04/01 06:34:42;;;;;;;7.63;2.80;;;8.10;99.90;;;;;;5100061;28;20298;-58
2023/04/01 06:37:19;;;;;;;11.25;3.00;;;8.10;99.90;;;;;;5078023;28;20483;-59
2023/04/01 06:39:50;;;;;;;5.20;2.33;;;8.10;99.90;;;;;;5108260;28;20080;-58
2023/04/01 06:42:36;;;;;;;6.15;2.72;;;8.10;99.90;;;;;;5088863;28;20044;-59
2023/04/01 06:45:26;;;;;;;3.60;2.30;;;8.00;99.90;;;;;;5080460;28;20047;-58
2023/04/01 06:48:33;;;;;;;6.97;2.90;;;8.00;99.90;;;;;;5072765;28;20487;-59
2023/04/01 06:51:33;;;;;;;9.02;2.60;;;8.00;99.90;;;;;;5092432;28;20031;-58
2023/04/01 06:54:42;;;;;;;7.57;2.83;;;8.00;99.90;;;;;;5105072;28;20483;-58
2023/04/01 06:57:51;;;;;;;3.97;2.45;;;8.00;99.90;;;;;;5101477;28;20344;-59
2023/04/01 07:00:32;;;;;;;6.45;2.33;;;8.00;99.90;;;;;;5089308;28;20043;-60
2023/04/01 07:03:22;;;;;;;7.65;2.55;;;8.00;99.90;;;;;;5089456;28;20047;-59
2023/04/01 07:05:53;;;;;;;4.57;2.35;;;8.00;99.90;;;;;;5075766;28;20051;-60
2023/04/01 07:08:31;;;;;;;6.40;2.47;;;8.00;99.90;;;;;;5105776;28;20442;-59
2023/04/01 07:11:04;;;;;;;6.35;2.40;;;8.00;99.90;;;;;;5088476;28;20040;-59
2023/04/01 07:13:58;;;;;;;3.65;1.98;;;8.00;99.90;;;;;;5086187;28;20048;-59
2023/04/01 07:16:29;;;;;;;5.40;2.13;;;8.00;99.90;;;;;;5105431;28;20398;-58
2023/04/01 07:19:06;;;;;;;3.00;2.05;;;8.00;99.90;;;;;;5107229;28;20051;-58
2023/04/01 07:22:14;;;;;;;4.57;1.90;;;8.00;99.90;;;;;;5088237;28;20494;-59
2023/04/01 07:25:12;;;;;;;3.25;1.70;;;8.00;99.90;;;;;;5092464;28;20403;-58
2023/04/01 07:27:42;;;;;;;3.88;2.10;;;8.00;99.90;;;;;;5088939;28;20044;-59
2023/04/01 07:30:23;;;;;;;2.03;1.50;;;8.00;99.90;;;;;;5087539;28;20054;-58
2023/04/01 07:33:16;;;;;;;4.40;1.77;;;8.00;99.90;;;;;;5076507;28;20051;-57
2023/04/01 07:36:00;;;;;;;3.75;1.67;;;8.00;99.90;;;;;;5065525;28;20080;-59
2023/04/01 07:38:55;;;;;;;4.30;1.40;;;8.10;99.90;;;;;;5078787;28;20040;-59
2023/04/01 07:41:46;;;;;;;3.78;1.60;;;8.10;99.90;;;;;;5084852;28;20421;-59
2023/04/01 07:44:27;;;;;;;2.20;1.13;;;8.20;99.90;;;;;;5082210;28;20377;-58
2023/04/01 07:47:01;;;;;;;5.00;1.80;;;8.20;99.90;;;;;;5071264;28;20052;-58
2023/04/01 07:49:49;;;;;;;3.13;1.65;;;8.30;99.90;;;;;;5081483;28;20395;-59
2023/04/01 07:52:26;;;;;;;2.20;1.50;;;8.30;99.90;;;;;;5084458;28;20051;-57
2023/04/01 07:55:16;;;;;;;1.95;1.42;;;8.40;99.90;;;;;;5084843;28;20044;-58
2023/04/01 07:58:09;;;;;;;4.45;1.30;;;8.40;99.90;;;;;;5084026;28;20028;-57
2023/04/01 08:00:51;;;;;;;2.05;1.30;;;8.40;99.90;;;;;;5069562;28;20036;-58
2023/04/01 08:03:38;;;;;;;2.80;1.30;;;8.40;99.90;;;;;;5064386;28;20372;-58
2023/04/01 08:06:35;;;;;;;2.90;1.25;;;8.40;99.90;;;;;;5089015;28;20063;-58
2023/04/01 08:09:25;;;;;;;3.83;1.33;;;8.40;99.90;;;;;;5068049;28;20404;-57
2023/04/01 08:12:30;;;;;;;5.85;1.60;;;8.50;99.90;;;;;;5067790;28;20044;-59
2023/04/01 08:15:09;;;;;;;3.55;1.25;;;9.50;99.90;;;;;;5069410;28;20722;-59
2023/04/01 08:18:04;;;;;;;5.55;1.70;;;8.50;99.90;;;;;;5086283;28;20055;-59
2023/04/01 08:20:50;;;;;;;4.35;1.30;;;8.50;99.90;;;;;;5100244;28;20118;-59
2023/04/01 08:23:36;;;;;;;4.40;1.92;;;8.60;99.90;;;;;;5083394;28;20035;-58
2023/04/01 08:26:30;;;;;;;3.63;1.40;;;8.70;99.90;;;;;;5083645;28;20044;-58
2023/04/01 08:29:11;;;;;;;3.17;1.30;;;8.80;99.90;;;;;;5089108;28;20048;-59
2023/04/01 08:32:01;;;;;;;4.30;1.63;;;8.80;99.90;;;;;;5063573;28;20055;-58
2023/04/01 08:34:36;;;;;;;1.67;1.10;;;8.90;99.90;;;;;;5099784;28;20051;-59
2023/04/01 08:37:14;;;;;;;2.88;1.00;;;8.90;99.90;;;;;;5080129;28;20454;-59
2023/04/01 08:39:50;;;;;;;3.05;1.10;;;8.90;99.90;;;;;;5106860;28;20394;-57
2023/04/01 08:42:22;;;;;;;1.50;0.90;;;8.90;99.90;;;;;;5101610;28;20102;-58
2023/04/01 08:45:21;;;;;;;1.77;1.10;;;9.00;99.90;;;;;;5108260;28;20512;-58
2023/04/01 08:48:11;;;;;;;1.85;0.93;;;9.10;99.90;;;;;;5067095;28;20054;-60
2023/04/01 08:50:58;;;;;;;2.05;1.08;;;9.20;99.90;;;;;;5105572;28;20043;-58
2023/04/01 08:54:00;;;;;;;4.60;1.10;;;9.30;99.90;;;;;;5106325;28;20039;-57
2023/04/01 08:56:40;;;;;;;1.67;1.00;;;9.40;99.90;;;;;;5087929;28;20110;-60
2023/04/01 08:59:32;;;;;;;2.45;0.77;;;9.50;99.90;;;;;;5078835;28;20040;-59
2023/04/01 09:02:31;;;;;;;2.45;0.88;;;9.50;99.90;;;;;;5074589;28;20032;-57
2023/04/01 09:05:22;;;;;;;5.32;1.17;;;9.50;99.90;;;;;;5073663;28;20658;-58
2023/04/01 09:08:02;;;;;;;2.45;0.90;;;9.50;99.90;;;;;;5090381;28;20047;-58
2023/04/01 09:10:58;;;;;;;2.40;1.00;;;9.60;99.90;;;;;;5107627;28;20058;-58
2023/04/01 09:14:24;;;;;;;2.53;0.93;;;9.70;99.90;;;;;;5057541;28;20052;-58
2023/04/01 09:17:35;;;;;;;1.05;0.60;;;9.80;99.90;;;;;;5070586;28;20056;-58
2023/04/01 09:20:23;;;;;;;0.90;0.70;;;9.80;99.90;;;;;;5090393;28;20043;-59
2023/04/01 09:23:18;;;;;;;2.22;0.90;;;9.80;99.90;;;;;;5088293;28;20487;-58
2023/04/01 09:26:03;;;;;;;1.38;0.90;;;9.80;99.90;;;;;;5101089;28;20059;-58
2023/04/01 09:28:46;;;;;;;3.47;0.77;;;9.80;99.90;;;;;;5090754;28;20346;-58
2023/04/01 09:31:59;;;;;;;0.70;0.57;;;9.80;99.90;;;;;;5073022;28;20051;-58
2023/04/01 09:35:02;;;;;;;1.53;1.37;;;9.80;99.90;;;;;;5074164;28;20052;-57
2023/04/01 09:38:05;;;;;;;3.17;1.02;;;9.80;99.90;;;;;;5088491;28;20307;-57
2023/04/01 09:41:01;;;;;;;1.08;0.57;;;9.90;99.90;;;;;;5084373;28;20044;-58
2023/04/01 09:43:58;;;;;;;2.55;0.80;;;10.10;99.90;;;;;;5100919;28;20044;-59
2023/04/01 09:46:45;;;;;;;1.52;0.70;;;10.20;99.90;;;;;;5089384;28;20040;-59
2023/04/01 09:49:35;;;;;;;2.30;0.82;;;10.20;99.90;;;;;;5097388;28;20052;-58
2023/04/01 09:52:37;;;;;;;1.17;0.70;;;10.20;99.90;;;;;;5088847;28;20066;-59
2023/04/01 09:55:38;;;;;;;1.38;0.65;;;10.30;99.90;;;;;;5081155;28;20059;-58
2023/04/01 09:58:24;;;;;;;0.82;0.52;;;10.40;99.90;;;;;;5089338;28;20055;-58
2023/04/01 10:01:34;;;;;;;3.08;0.60;;;10.60;99.90;;;;;;5058739;28;20395;-57
2023/04/01 10:04:22;;;;;;;3.15;0.60;;;10.90;99.90;;;;;;5060869;28;20044;-59
2023/04/01 10:07:27;;;;;;;2.33;0.40;;;10.90;99.90;;;;;;5089379;28;20075;-59
2023/04/01 10:10:06;;;;;;;2.15;0.60;;;11.00;99.90;;;;;;5105703;27;20208;-59
2023/04/01 10:13:02;;;;;;;1.33;0.65;;;11.20;99.90;;;;;;5094369;28;20036;-58
2023/04/01 10:16:03;;;;;;;0.85;0.60;;;11.20;99.90;;;;;;5087755;28;20056;-60
2023/04/01 10:18:30;;;;;;;2.40;0.88;;;11.20;99.90;;;;;;5107704;28;20040;-59
2023/04/01 10:21:12;;;;;;;1.10;0.60;;;11.30;99.90;;;;;;5106629;28;20044;-59
2023/04/01 10:24:17;;;;;;;1.40;0.60;;;11.30;99.90;;;;;;5088602;28;20506;-59
2023/04/01 10:26:51;;;;;;;1.30;0.63;;;11.40;99.90;;;;;;5073234;28;20489;-58
2023/04/01 10:29:52;;;;;;;1.45;0.70;;;11.40;99.90;;;;;;5108282;28;20059;-60
2023/04/01 10:32:39;;;;;;;3.35;1.00;;;11.40;99.90;;;;;;5074022;28;20036;-58
2023/04/01 10:35:39;;;;;;;2.70;0.95;;;11.30;99.90;;;;;;5084546;28;20043;-59
2023/04/01 10:38:46;;;;;;;1.05;0.70;;;11.20;99.90;;;;;;5073644;28;20036;-58
2023/04/01 10:41:16;;;;;;;1.52;0.40;;;11.20;99.90;;;;;;5049812;28;20059;-59
2023/04/01 10:44:25;;;;;;;2.75;0.60;;;11.20;99.90;;;;;;5090886;28;20051;-59
2023/04/01 10:46:56;;;;;;;3.33;0.55;;;11.60;99.90;;;;;;5091283;28;20040;-60
2023/04/01 10:49:48;;;;;;;0.50;0.50;;;11.60;99.90;;;;;;5111301;28;20055;-58
2023/04/01 10:52:50;;;;;;;1.38;0.50;;;11.80;99.90;;;;;;5088998;28;20036;-60
2023/04/01 10:55:42;;;;;;;2.08;0.70;;;11.90;99.90;;;;;;5100146;28;20082;-59
2023/04/01 10:58:53;;;;;;;1.55;0.73;;;11.80;99.90;;;;;;5107850;28;20106;-59
2023/04/01 11:02:23;;;;;;;0.77;0.40;;;11.60;99.90;;;;;;5108664;28;20495;-59
2023/04/01 11:05:21;;;;;;;1.45;0.63;;;11.50;99.90;;;;;;5106756;28;20058;-59
2023/04/01 11:08:14;;;;;;;1.48;0.50;;;11.40;99.90;;;;;;5091474;28;20043;-59
2023/04/01 11:11:00;;;;;;;0.85;0.47;;;11.40;99.90;;;;;;5072676;28;20052;-59
2023/04/01 11:14:14;;;;;;;1.10;0.40;;;11.50;99.90;;;;;;5083808;28;20046;-60
2023/04/01 11:17:06;;;;;;;0.60;0.40;;;11.60;99.90;;;;;;5086479;28;20059;-59
2023/04/01 11:19:59;;;;;;;1.45;0.43;;;11.80;99.90;;;;;;5088082;28;20043;-59
2023/04/01 11:22:35;;;;;;;0.47;0.30;;;11.80;99.90;;;;;;5106028;28;20238;-60
2023/04/01 11:25:15;;;;;;;1.40;0.50;;;11.80;99.90;;;;;;5073622;28;20040;-59
2023/04/01 11:28:14;;;;;;;1.98;0.52;;;11.80;99.90;;;;;;5084219;28;20048;-59
2023/04/01 11:31:10;;;;;;;1.00;0.45;;;11.70;99.90;;;;;;5108774;28;20044;-60
2023/04/01 11:33:50;;;;;;;2.22;0.40;;;11.80;99.90;;;;;;5108654;28;20035;-59
2023/04/01 11:36:30;;;;;;;;;;;11.90;99.90;;;;;;5088713;28;20419;-59
2023/04/01 11:39:23;;;;;;;1.10;0.40;;;11.90;99.90;;;;;;5080140;28;19950;-59
2023/04/01 11:43:00;;;;;;;2.00;0.40;;;11.90;99.90;;;;;;5063900;28;20048;-59
2023/04/01 11:46:05;;;;;;;0.52;0.20;;;11.90;99.90;;;;;;5058032;28;20180;-59
2023/04/01 11:48:50;;;;;;;1.98;0.40;;;12.00;99.90;;;;;;5102883;28;20078;-57
2023/04/01 11:51:33;;;;;;;1.55;0.47;;;12.20;99.90;;;;;;5095524;28;20043;-58
2023/04/01 11:54:23;;;;;;;0.90;0.30;;;12.30;99.90;;;;;;5104367;28;20043;-59
2023/04/01 11:57:27;;;;;;;0.70;0.70;;;12.40;99.90;;;;;;5099263;28;20058;-59
2023/04/01 12:00:14;;;;;;;1.77;0.90;;;12.30;99.90;;;;;;5098425;28;20300;-59
2023/04/01 12:03:09;;;;;;;3.50;0.65;;;12.30;99.90;;;;;;5099636;28;20036;-60
2023/04/01 12:05:45;;;;;;;1.38;0.63;;;12.30;99.90;;;;;;5098849;28;20044;-59
2023/04/01 12:08:39;;;;;;;1.15;0.57;;;12.60;99.90;;;;;;5108267;28;20047;-59
2023/04/01 12:11:21;;;;;;;0.65;0.40;;;13.10;99.90;;;;;;5110135;28;20047;-59
2023/04/01 12:13:54;;;;;;;0.90;0.22;;;13.30;99.90;;;;;;5104160;28;20515;-58
2023/04/01 12:16:48;;;;;;;0.63;0.40;;;13.20;99.90;;;;;;5104390;28;20052;-60
2023/04/01 12:19:47;;;;;;;3.53;0.63;;;13.10;99.90;;;;;;5102058;28;20506;-57
2023/04/01 12:22:28;;;;;;;2.00;0.70;;;12.90;99.90;;;;;;5100291;28;20058;-59
2023/04/01 12:25:00;;;;;;;1.40;0.45;;;12.40;99.90;;;;;;5095201;28;20051;-59
2023/04/01 12:27:30;;;;;;;;;;;12.40;99.90;;;;;;5105121;28;20044;-60
2023/04/01 12:30:06;;;;;;;1.67;0.40;;;12.20;99.90;;;;;;5106768;28;19919;-59
2023/04/01 12:32:54;;;;;;;1.45;0.30;;;11.90;99.90;;;;;;5105435;28;20044;-58
2023/04/01 12:35:43;;;;;;;1.25;0.50;;;11.90;99.90;;;;;;5107482;28;20043;-58
2023/04/01 12:38:47;;;;;;;0.68;0.55;;;11.70;99.90;;;;;;5106407;28;20395;-59
2023/04/01 12:41:37;;;;;;;0.35;0.30;;;11.60;99.90;;;;;;5109366;28;20054;-59
2023/04/01 12:44:34;;;;;;;1.00;0.45;;;11.40;99.90;;;;;;5102664;28;20039;-59
2023/04/01 12:47:04;;;;;;;1.55;0.20;;;11.40;99.90;;;;;;5107816;28;20047;-59
2023/04/01 12:50:10;;;;;;;1.13;0.25;;;11.50;99.90;;;;;;5108727;28;20395;-59
2023/04/01 12:52:46;;;;;;;0.43;0.25;;;11.50;99.90;;;;;;5105947;28;20511;-58
2023/04/01 12:55:32;;;;;;;1.73;0.30;;;11.60;99.90;;;;;;5095951;28;20044;-59
2023/04/01 12:58:03;;;;;;;0.38;0.30;;;11.60;99.90;;;;;;5105376;28;20391;-58
2023/04/01 13:01:07;;;;;;;0.70;0.25;;;11.60;99.90;;;;;;5086788;28;20048;-59
2023/04/01 13:03:50;;;;;;;1.23;0.43;;;11.60;99.90;;;;;;5100945;28;20046;-59
2023/04/01 13:06:41;;;;;;;3.13;0.70;;;11.50;99.90;;;;;;5074917;28;20360;-59
2023/04/01 13:09:30;;;;;;;1.42;0.65;;;11.50;99.90;;;;;;5100953;28;20051;-59
2023/04/01 13:12:09;;;;;;;2.28;0.43;;;11.40;99.90;;;;;;5108540;28;20521;-58
2023/04/01 13:14:43;;;;;;;0.85;0.30;;;11.40;99.90;;;;;;5103378;28;20043;-58
2023/04/01 13:17:34;;;;;;;1.17;0.38;;;11.50;99.90;;;;;;5099501;28;20051;-59
2023/04/01 13:20:28;;;;;;;0.70;0.40;;;11.50;99.90;;;;;;5106094;28;20509;-59
2023/04/01 13:23:17;;;;;;;2.17;0.50;;;11.50;99.90;;;;;;5097518;28;20337;-59
2023/04/01 13:25:44;;;;;;;0.55;0.55;;;11.50;99.90;;;;;;5105763;28;20052;-58
2023/04/01 13:28:25;;;;;;;1.85;0.40;;;11.50;99.90;;;;;;5107476;28;20085;-60
2023/04/01 13:31:08;;;;;;;3.83;0.70;;;11.50;99.90;;;;;;5107306;28;20059;-58
2023/04/01 13:34:05;;;;;;;0.82;0.40;;;11.40;99.90;;;;;;5096548;28;20048;-58
2023/04/01 13:36:53;;;;;;;2.42;0.60;;;11.40;99.90;;;;;;5060385;28;20475;-59
2023/04/01 13:39:29;;;;;;;3.97;0.70;;;11.30;99.90;;;;;;5105256;28;20343;-58
2023/04/01 13:42:24;;;;;;;1.50;0.47;;;11.20;99.90;;;;;;5087712;28;20051;-59
2023/04/01 13:45:03;;;;;;;1.17;0.52;;;11.10;99.90;;;;;;5094082;28;20035;-58
2023/04/01 13:47:51;;;;;;;0.55;0.40;;;11.00;99.90;;;;;;5102039;28;20348;-58
2023/04/01 13:51:05;;;;;;;0.88;0.40;;;10.80;99.90;;;;;;5076197;28;20044;-58
2023/04/01 13:53:59;;;;;;;0.70;0.40;;;10.80;99.90;;;;;;5100577;28;20042;-58
2023/04/01 13:57:15;;;;;;;0.60;0.35;;;10.90;99.90;;;;;;5102632;28;20078;-59
2023/04/01 14:00:16;;;;;;;1.48;0.47;;;10.90;99.90;;;;;;5088222;28;20058;-58
2023/04/01 14:02:56;;;;;;;2.63;0.30;;;11.00;99.90;;;;;;5104795;28;20043;-59
2023/04/01 14:05:48;;;;;;;1.65;0.30;;;11.20;99.90;;;;;;5098119;28;20051;-59
2023/04/01 14:08:57;;;;;;;0.38;0.30;;;11.20;99.90;;;;;;5094753;28;20055;-59
2023/04/01 14:11:46;;;;;;;2.17;0.22;;;11.40;99.90;;;;;;5002005;28;20072;-59